createdAt,value
2022-09-23T00:01:21.594Z,100663.41
2022-09-23T00:04:29.781Z,100664.66
2022-09-23T00:07:39.937Z,100668.91
2022-09-23T00:10:44.705Z,100666.09
2022-09-23T00:13:50.154Z,100660.06
2022-09-23T00:17:02.131Z,100665.84
2022-09-23T00:20:09.902Z,100666.00
2022-09-23T00:23:12.619Z,100657.53
2022-09-23T00:26:24.713Z,100653.84
2022-09-23T00:29:27.091Z,100661.28
2022-09-23T00:32:29.452Z,100660.94
2022-09-23T00:35:32.019Z,100653.41
2022-09-23T00:38:44.760Z,100650.56
2022-09-23T00:42:05.435Z,100641.03
2022-09-23T00:45:11.975Z,100645.53
2022-09-23T00:48:21.345Z,100638.25
2022-09-23T00:51:25.135Z,100640.63
2022-09-23T00:54:34.929Z,100640.63
2022-09-23T00:57:39.114Z,100637.16
2022-09-23T01:00:45.023Z,100640.69
2022-09-23T01:04:02.966Z,100638.31
2022-09-23T01:07:08.249Z,100644.03
2022-09-23T01:10:11.987Z,100640.34
2022-09-23T01:13:33.866Z,100643.34
2022-09-23T01:17:01.770Z,100639.31
2022-09-23T01:20:09.222Z,100641.44
2022-09-23T01:23:28.493Z,100643.19
2022-09-23T01:26:42.974Z,100639.44
2022-09-23T01:30:05.243Z,100644.03
2022-09-23T01:33:18.948Z,100634.25
2022-09-23T01:36:34.812Z,100640.03
2022-09-23T01:39:52.895Z,100635.25
2022-09-23T01:43:10.065Z,100645.62
2022-09-23T01:46:28.382Z,100644.03
2022-09-23T01:49:56.118Z,100643.00
2022-09-23T01:53:02.793Z,100645.59
2022-09-23T01:56:15.931Z,100636.38
2022-09-23T01:59:18.101Z,100636.69
2022-09-23T02:02:30.371Z,100631.00
2022-09-23T02:06:00.529Z,100634.44
2022-09-23T02:09:11.746Z,100633.66
2022-09-23T02:12:20.371Z,100632.59
2022-09-23T02:15:44.427Z,100634.19
2022-09-23T02:19:05.972Z,100626.25
2022-09-23T02:22:14.093Z,100629.22
2022-09-23T02:25:18.654Z,100621.78
2022-09-23T02:28:34.294Z,100628.72
2022-09-23T02:31:44.170Z,100623.37
2022-09-23T02:35:10.370Z,100625.28
2022-09-23T02:38:28.322Z,100627.19
2022-09-23T02:41:38.009Z,100627.63
2022-09-23T02:44:42.855Z,100633.06
2022-09-23T02:47:55.504Z,100634.22
2022-09-23T02:51:01.297Z,100629.44
2022-09-23T02:54:10.316Z,100622.91
2022-09-23T02:57:17.285Z,100622.97
2022-09-23T03:00:30.343Z,100630.59
2022-09-23T03:03:52.767Z,100623.91
2022-09-23T03:07:03.169Z,100625.50
2022-09-23T03:10:05.180Z,100627.31
2022-09-23T03:13:30.555Z,100621.53
2022-09-23T03:16:49.064Z,100622.53
2022-09-23T03:20:10.494Z,100629.91
2022-09-23T03:23:18.086Z,100631.41
2022-09-23T03:26:26.108Z,100631.06
2022-09-23T03:29:35.336Z,100630.16
2022-09-23T03:32:45.990Z,100622.00
2022-09-23T03:36:19.836Z,100630.94
2022-09-23T03:39:29.552Z,100637.88
2022-09-23T03:42:34.214Z,100636.87
2022-09-23T03:45:38.254Z,100634.50
2022-09-23T03:48:49.386Z,100632.50
2022-09-23T03:51:51.448Z,100631.16
2022-09-23T03:54:55.312Z,100631.47
2022-09-23T03:58:09.063Z,100630.37
2022-09-23T04:01:19.706Z,100629.53
2022-09-23T04:04:30.781Z,100633.13
2022-09-23T04:07:37.950Z,100629.19
2022-09-23T04:10:41.653Z,100636.09
2022-09-23T04:13:44.218Z,100631.84
2022-09-23T04:16:47.047Z,100627.59
2022-09-23T04:19:50.316Z,100635.59
2022-09-23T04:22:54.546Z,100637.56
2022-09-23T04:25:57.137Z,100641.84
2022-09-23T04:29:07.028Z,100635.50
2022-09-23T04:32:14.260Z,100635.88
2022-09-23T04:35:18.786Z,100643.00
2022-09-23T04:38:27.721Z,100641.22
2022-09-23T04:41:36.608Z,100643.25
2022-09-23T04:44:42.493Z,100649.03
2022-09-23T04:47:46.424Z,100652.62
2022-09-23T04:50:54.969Z,100647.75
2022-09-23T04:53:57.838Z,100645.34
2022-09-23T04:57:00.378Z,100647.69
2022-09-23T05:00:04.637Z,100646.69
2022-09-23T05:03:07.486Z,100645.16
2022-09-23T05:06:15.831Z,100651.94
2022-09-23T05:09:20.157Z,100656.59
2022-09-23T05:12:34.172Z,100660.47
2022-09-23T05:15:46.292Z,100668.31
2022-09-23T05:18:48.969Z,100660.16
2022-09-23T05:21:52.188Z,100659.91
2022-09-23T05:24:56.409Z,100668.44
2022-09-23T05:28:06.834Z,100675.47
2022-09-23T05:31:09.856Z,100685.69
2022-09-23T05:34:22.299Z,100677.44
2022-09-23T05:37:26.023Z,100680.47
2022-09-23T05:40:29.525Z,100685.13
2022-09-23T05:43:36.360Z,100681.88
2022-09-23T05:46:39.108Z,100684.69
2022-09-23T05:49:58.697Z,100684.03
2022-09-23T05:53:02.556Z,100692.62
2022-09-23T05:56:16.842Z,100681.13
2022-09-23T05:59:28.339Z,100683.00
2022-09-23T06:02:36.757Z,100683.53
2022-09-23T06:05:47.916Z,100693.53
2022-09-23T06:08:56.041Z,100687.81
2022-09-23T06:12:01.267Z,100690.16
2022-09-23T06:15:08.314Z,100686.44
2022-09-23T06:18:14.184Z,100683.66
2022-09-23T06:21:26.092Z,100679.75
2022-09-23T06:24:34.446Z,100681.81
2022-09-23T06:27:41.772Z,100687.38
2022-09-23T06:30:58.900Z,100687.03
2022-09-23T06:34:11.719Z,100686.44
2022-09-23T06:37:32.265Z,100681.22
2022-09-23T06:40:47.348Z,100689.56
2022-09-23T06:43:58.837Z,100695.88
2022-09-23T06:47:01.357Z,100701.78
2022-09-23T06:50:04.588Z,100722.69
2022-09-23T06:53:08.600Z,100712.16
2022-09-23T06:56:13.137Z,100726.28
2022-09-23T06:59:20.841Z,100716.66
2022-09-23T07:02:24.872Z,100713.62
2022-09-23T07:05:31.357Z,100714.09
2022-09-23T07:08:36.373Z,100707.09
2022-09-23T07:11:39.245Z,100711.53
2022-09-23T07:14:42.959Z,100708.75
2022-09-23T07:17:49.245Z,100715.50
2022-09-23T07:20:52.646Z,100718.00
2022-09-23T07:23:58.585Z,100717.81
2022-09-23T07:27:03.730Z,100719.75
2022-09-23T07:30:07.974Z,100719.75
2022-09-23T07:33:26.370Z,100718.50
2022-09-23T07:36:33.890Z,100713.16
2022-09-23T07:39:40.694Z,100722.69
2022-09-23T07:42:43.981Z,100717.84
2022-09-23T07:45:47.878Z,100715.97
2022-09-23T07:48:51.724Z,100718.00
2022-09-23T07:51:55.623Z,100719.06
2022-09-23T07:54:59.386Z,100719.69
2022-09-23T07:58:04.043Z,100714.78
2022-09-23T08:01:09.155Z,100711.87
2022-09-23T08:04:23.151Z,100720.56
2022-09-23T08:07:26.310Z,100721.16
2022-09-23T08:10:29.913Z,100726.06
2022-09-23T08:13:33.853Z,100710.69
2022-09-23T08:16:37.198Z,100717.28
2022-09-23T08:19:42.489Z,100714.28
2022-09-23T08:22:50.765Z,100720.84
2022-09-23T08:26:01.340Z,100712.84
2022-09-23T08:29:04.433Z,100709.44
2022-09-23T08:32:06.946Z,100716.22
2022-09-23T08:35:12.932Z,100711.84
2022-09-23T08:38:16.479Z,100711.31
2022-09-23T08:41:32.055Z,100705.03
2022-09-23T08:44:40.691Z,100702.94
2022-09-23T08:47:44.496Z,100704.91
2022-09-23T08:50:54.383Z,100705.03
2022-09-23T08:53:58.617Z,100710.28
2022-09-23T08:57:02.870Z,100704.28
2022-09-23T09:00:05.918Z,100698.72
2022-09-23T09:03:20.067Z,100696.81
2022-09-23T09:06:36.214Z,100701.97
2022-09-23T09:09:54.552Z,100707.09
2022-09-23T09:13:36.934Z,100703.34
2022-09-23T09:17:02.688Z,100711.91
2022-09-23T09:20:19.776Z,100700.78
2022-09-23T09:23:23.611Z,100709.00
2022-09-23T09:26:36.954Z,100704.72
2022-09-23T09:29:43.114Z,100704.91
2022-09-23T09:32:55.732Z,100700.63
2022-09-23T09:36:01.571Z,100692.06
2022-09-23T09:39:04.156Z,100691.94
2022-09-23T09:42:08.034Z,100695.28
2022-09-23T09:45:20.087Z,100688.91
2022-09-23T09:48:28.183Z,100686.16
2022-09-23T09:51:31.470Z,100683.94
2022-09-23T09:54:35.521Z,100681.94
2022-09-23T09:57:43.253Z,100677.06
2022-09-23T10:00:47.049Z,100675.84
2022-09-23T10:03:54.308Z,100671.47
2022-09-23T10:07:17.166Z,100664.19
2022-09-23T10:10:32.288Z,100656.06
2022-09-23T10:13:36.585Z,100651.97
2022-09-23T10:16:43.137Z,100663.91
2022-09-23T10:19:50.948Z,100665.03
2022-09-23T10:22:53.743Z,100658.81
2022-09-23T10:26:01.857Z,100662.84
2022-09-23T10:29:20.521Z,100651.84
2022-09-23T10:32:30.499Z,100665.22
2022-09-23T10:35:35.200Z,100665.97
2022-09-23T10:38:38.810Z,100660.25
2022-09-23T10:42:06.069Z,100657.00
2022-09-23T10:45:47.216Z,100652.53
2022-09-23T10:48:57.800Z,100655.19
2022-09-23T10:52:00.361Z,100650.13
2022-09-23T10:55:09.097Z,100647.53
2022-09-23T10:58:11.665Z,100645.03
2022-09-23T11:01:21.976Z,100653.00
2022-09-23T11:04:42.471Z,100653.41
2022-09-23T11:07:45.412Z,100643.28
2022-09-23T11:10:48.824Z,100637.00
2022-09-23T11:13:59.448Z,100629.09
2022-09-23T11:17:15.018Z,100627.59
2022-09-23T11:20:28.580Z,100628.69
2022-09-23T11:23:33.237Z,100627.88
2022-09-23T11:26:45.514Z,100627.19
2022-09-23T11:29:48.238Z,100613.59
2022-09-23T11:32:52.200Z,100618.72
2022-09-23T11:36:01.893Z,100615.44
2022-09-23T11:39:15.576Z,100607.84
2022-09-23T11:42:29.052Z,100601.69
2022-09-23T11:45:35.488Z,100599.41
2022-09-23T11:48:41.581Z,100602.19
2022-09-23T11:52:03.834Z,100598.59
2022-09-23T11:55:23.225Z,100594.47
2022-09-23T11:58:34.864Z,100595.53
2022-09-23T12:01:45.600Z,100590.25
2022-09-23T12:05:09.052Z,100591.25
2022-09-23T12:08:33.435Z,100595.88
2022-09-23T12:11:53.609Z,100594.91
2022-09-23T12:15:00.814Z,100583.13
2022-09-23T12:18:12.921Z,100582.16
2022-09-23T12:21:49.068Z,100578.69
2022-09-23T12:25:10.935Z,100578.25
2022-09-23T12:28:19.862Z,100573.16
2022-09-23T12:31:31.840Z,100567.72
2022-09-23T12:34:48.555Z,100555.53
2022-09-23T12:37:52.367Z,100563.16
2022-09-23T12:40:56.783Z,100563.88
2022-09-23T12:44:02.923Z,100555.84
2022-09-23T12:47:32.382Z,100542.63
2022-09-23T12:50:52.780Z,100554.09
2022-09-23T12:53:57.114Z,100546.69
2022-09-23T12:57:00.711Z,100539.28
2022-09-23T13:00:07.050Z,100536.09
2022-09-23T13:03:32.667Z,100534.25
2022-09-23T13:06:56.758Z,100531.75
2022-09-23T13:10:17.878Z,100523.22
2022-09-23T13:13:23.619Z,100521.94
2022-09-23T13:16:39.091Z,100523.34
2022-09-23T13:19:43.774Z,100517.38
2022-09-23T13:22:54.509Z,100512.59
2022-09-23T13:26:00.080Z,100513.69
2022-09-23T13:29:03.897Z,100517.00
2022-09-23T13:32:13.431Z,100515.81
2022-09-23T13:35:19.277Z,100505.47
2022-09-23T13:38:27.013Z,100510.28
2022-09-23T13:41:29.398Z,100514.19
2022-09-23T13:44:32.821Z,100507.78
2022-09-23T13:47:37.017Z,100509.84
2022-09-23T13:50:44.854Z,100503.31
2022-09-23T13:53:54.049Z,100498.75
2022-09-23T13:56:57.992Z,100503.06
2022-09-23T14:00:02.035Z,100498.72
2022-09-23T14:03:25.040Z,100497.87
2022-09-23T14:06:31.311Z,100504.19
2022-09-23T14:09:36.900Z,100497.22
2022-09-23T14:12:40.076Z,100492.50
2022-09-23T14:15:47.130Z,100486.16
2022-09-23T14:18:51.685Z,100485.94
2022-09-23T14:21:56.668Z,100484.56
2022-09-23T14:25:00.015Z,100484.03
2022-09-23T14:28:03.423Z,100479.47
2022-09-23T14:31:07.446Z,100482.25
2022-09-23T14:34:33.481Z,100477.97
2022-09-23T14:37:57.673Z,100474.09
2022-09-23T14:41:17.637Z,100478.28
2022-09-23T14:44:26.174Z,100474.37
2022-09-23T14:47:30.380Z,100482.16
2022-09-23T14:50:49.650Z,100470.38
2022-09-23T14:53:53.671Z,100463.69
2022-09-23T14:56:56.247Z,100467.66
2022-09-23T15:00:10.677Z,100457.47
2022-09-23T15:03:17.402Z,100454.81
2022-09-23T15:06:21.320Z,100459.28
2022-09-23T15:09:27.881Z,100455.81
2022-09-23T15:12:30.797Z,100457.81
2022-09-23T15:15:33.739Z,100457.69
2022-09-23T15:18:37.767Z,100457.50
2022-09-23T15:21:43.115Z,100452.22
2022-09-23T15:24:46.414Z,100457.50
2022-09-23T15:27:56.384Z,100460.16
2022-09-23T15:30:58.948Z,100453.81
2022-09-23T15:34:02.831Z,100453.16
2022-09-23T15:37:05.452Z,100452.62
2022-09-23T15:40:16.130Z,100451.03
2022-09-23T15:43:23.916Z,100440.78
2022-09-23T15:46:27.372Z,100444.56
2022-09-23T15:49:41.697Z,100451.16
2022-09-23T15:52:45.691Z,100444.97
2022-09-23T15:55:50.936Z,100441.44
2022-09-23T15:58:54.409Z,100445.19
2022-09-23T16:02:01.487Z,100447.88
2022-09-23T16:05:07.876Z,100445.25
2022-09-23T16:08:10.692Z,100444.56
2022-09-23T16:11:20.330Z,100449.44
2022-09-23T16:14:22.803Z,100445.69
2022-09-23T16:17:25.472Z,100449.72
2022-09-23T16:20:33.155Z,100450.25
2022-09-23T16:23:40.584Z,100449.03
2022-09-23T16:26:46.163Z,100455.56
2022-09-23T16:29:48.572Z,100452.22
2022-09-23T16:32:52.479Z,100456.66
2022-09-23T16:35:57.160Z,100454.84
2022-09-23T16:39:00.325Z,100449.25
2022-09-23T16:42:03.194Z,100452.28
2022-09-23T16:45:09.922Z,100455.00
2022-09-23T16:48:12.457Z,100451.66
2022-09-23T16:51:18.275Z,100456.12
2022-09-23T16:54:23.552Z,100458.41
2022-09-23T16:57:25.478Z,100449.91
2022-09-23T17:00:46.533Z,100450.37
2022-09-23T17:03:49.884Z,100445.38
2022-09-23T17:06:58.534Z,100445.81
2022-09-23T17:10:00.726Z,100450.13
2022-09-23T17:13:09.607Z,100442.94
2022-09-23T17:16:23.118Z,100447.63
2022-09-23T17:19:26.343Z,100441.13
2022-09-23T17:22:29.841Z,100445.06
2022-09-23T17:25:34.679Z,100445.34
2022-09-23T17:28:37.381Z,100451.53
2022-09-23T17:31:40.884Z,100457.84
2022-09-23T17:34:44.573Z,100448.19
2022-09-23T17:37:48.206Z,100450.44
2022-09-23T17:40:56.950Z,100458.53
2022-09-23T17:44:01.118Z,100454.22
2022-09-23T17:47:06.446Z,100448.03
2022-09-23T17:50:15.716Z,100449.81
2022-09-23T17:53:18.086Z,100457.41
2022-09-23T17:56:25.172Z,100454.78
2022-09-23T17:59:28.666Z,100461.56
2022-09-23T18:02:31.301Z,100459.94
2022-09-23T18:05:38.856Z,100459.75
2022-09-23T18:08:43.809Z,100462.47
2022-09-23T18:11:47.499Z,100462.47
2022-09-23T18:14:54.379Z,100467.16
2022-09-23T18:18:01.672Z,100469.69
2022-09-23T18:21:05.834Z,100472.16
2022-09-23T18:27:35.424Z,100474.84
2022-09-23T18:30:38.879Z,100467.28
2022-09-23T18:33:43.560Z,100471.44
2022-09-23T18:36:46.837Z,100464.88
2022-09-23T18:39:50.423Z,100471.16
2022-09-23T18:42:55.227Z,100473.06
2022-09-23T18:45:58.954Z,100479.50
2022-09-23T18:49:20.835Z,100484.94
2022-09-23T18:52:23.803Z,100481.50
2022-09-23T18:55:30.913Z,100485.59
2022-09-23T18:58:33.494Z,100480.59
2022-09-23T19:01:35.865Z,100477.34
2022-09-23T19:04:38.878Z,100483.81
2022-09-23T19:07:41.346Z,100484.25
2022-09-23T19:11:00.321Z,100481.13
2022-09-23T19:14:07.430Z,100484.47
2022-09-23T19:17:10.896Z,100478.94
2022-09-23T19:20:14.709Z,100477.44
2022-09-23T19:23:18.030Z,100467.66
2022-09-23T19:26:26.633Z,100472.84
2022-09-23T19:29:32.858Z,100475.84
2022-09-23T19:32:35.161Z,100470.97
2022-09-23T19:35:46.833Z,100476.69
2022-09-23T19:38:53.083Z,100470.31
2022-09-23T19:42:04.301Z,100471.19
2022-09-23T19:45:09.346Z,100470.38
2022-09-23T19:48:11.515Z,100469.50
2022-09-23T19:51:14.413Z,100471.19
2022-09-23T19:54:21.267Z,100471.56
2022-09-23T19:57:27.051Z,100479.50
2022-09-23T20:00:29.970Z,100475.84
2022-09-23T20:03:37.435Z,100474.37
2022-09-23T20:06:42.762Z,100474.47
2022-09-23T20:09:47.213Z,100475.44
2022-09-23T20:12:56.751Z,100469.69
2022-09-23T20:16:07.143Z,100467.56
2022-09-23T20:19:12.372Z,100467.03
2022-09-23T20:22:33.007Z,100467.37
2022-09-23T20:25:56.944Z,100463.69
2022-09-23T20:29:01.658Z,100466.69
2022-09-23T20:32:04.258Z,100470.56
2022-09-23T20:35:11.050Z,100469.28
2022-09-23T20:38:18.022Z,100466.03
2022-09-23T20:41:20.606Z,100471.63
2022-09-23T20:44:24.095Z,100472.16
2022-09-23T20:47:27.192Z,100466.22
2022-09-23T20:50:29.920Z,100460.72
2022-09-23T20:53:33.020Z,100469.09
2022-09-23T20:56:35.454Z,100466.03
2022-09-23T20:59:42.038Z,100462.84
2022-09-23T21:02:45.373Z,100470.28
2022-09-23T21:05:48.543Z,100466.03
2022-09-23T21:08:56.736Z,100463.44
2022-09-23T21:12:00.392Z,100456.81
2022-09-23T21:15:03.737Z,100460.34
2022-09-23T21:18:13.667Z,100464.97
2022-09-23T21:21:29.804Z,100464.25
2022-09-23T21:25:16.005Z,100474.91
2022-09-23T21:28:07.015Z,100468.69
2022-09-23T21:31:20.233Z,100472.69
2022-09-23T21:34:27.843Z,100464.47
2022-09-23T21:37:30.880Z,100468.63
2022-09-23T21:40:51.916Z,100476.41
2022-09-23T21:43:57.191Z,100466.22
2022-09-23T21:47:01.811Z,100477.19
2022-09-23T21:50:06.070Z,100476.81
2022-09-23T21:53:13.945Z,100477.25
2022-09-23T21:56:22.673Z,100470.63
2022-09-23T21:59:26.584Z,100477.09
2022-09-23T22:02:29.476Z,100479.62
2022-09-23T22:05:35.962Z,100481.72
2022-09-23T22:08:40.572Z,100487.09
2022-09-23T22:12:07.991Z,100484.19
2022-09-23T22:15:11.941Z,100482.59
2022-09-23T22:18:15.178Z,100478.66
2022-09-23T22:21:22.337Z,100475.97
2022-09-23T22:24:28.824Z,100478.91
2022-09-23T22:27:32.029Z,100474.87
2022-09-23T22:30:53.692Z,100477.06
2022-09-23T22:34:01.952Z,100473.97
2022-09-23T22:37:05.810Z,100471.47
2022-09-23T22:40:16.570Z,100473.72
2022-09-23T22:43:22.802Z,100472.41
2022-09-23T22:46:27.751Z,100472.41
2022-09-23T22:49:32.774Z,100476.09
2022-09-23T22:52:35.588Z,100478.19
2022-09-23T22:55:38.405Z,100481.28
2022-09-23T22:58:43.188Z,100482.28
2022-09-23T23:01:47.617Z,100474.41
2022-09-23T23:04:50.574Z,100474.84
2022-09-23T23:07:59.550Z,100473.31
2022-09-23T23:11:11.219Z,100484.22
2022-09-23T23:14:17.027Z,100466.69
2022-09-23T23:17:19.582Z,100471.31
2022-09-23T23:20:25.209Z,100475.59
2022-09-23T23:23:28.418Z,100471.81
2022-09-23T23:26:34.835Z,100473.06
2022-09-23T23:29:39.762Z,100472.31
2022-09-23T23:32:45.878Z,100466.81
2022-09-23T23:35:58.444Z,100466.69
2022-09-23T23:39:02.062Z,100461.75
2022-09-23T23:42:05.727Z,100463.09
2022-09-23T23:45:10.029Z,100468.69
2022-09-23T23:48:14.452Z,100464.44
2022-09-23T23:51:19.753Z,100465.50
2022-09-23T23:54:25.142Z,100464.78
2022-09-23T23:57:29.092Z,100461.19
